Schillplate — ZDJJ8 — position and weather

sailwx.info

Track history (hours):
 
Tides and Currents Weather Stations Pressure Air Temp Water Temp Dewpoint Dewpoint Depression Visibility Wind Speed Wind Dir Waves Ship Positions

Schillplate

Last reported at 2016-Dec-05 03:33 UTC. Time now 2016-Dec-05 04:29 UTC.
Position N 32°49' E 035°02'.

Length 86 m; draft 4.4 m.

Type: Cargo ship. MMSI: 236111603.

Date/timePositionNaut miles runAvg speedWind from/ knotsBaromVisibWave heightAir tempDewpointWater temp
2016-Dec-05 03:33N 32°49' E 035°02'0 0.0
2016-Dec-05 02:33N 32°49' E 035°02'0 0.0
2016-Dec-05 01:33N 32°49' E 035°02'0 0.0
2016-Dec-05 00:33N 32°49' E 035°02'0 0.0
2016-Dec-04 23:33N 32°49' E 035°02'0 0.0
2016-Dec-04 22:33N 32°49' E 035°02'0 0.0
2016-Dec-04 21:33N 32°49' E 035°02'0 0.0
2016-Dec-04 20:33N 32°49' E 035°02'0 0.0
2016-Dec-04 19:33N 32°49' E 035°02'0 0.0
2016-Dec-04 18:33N 32°49' E 035°02'0 0.0
2016-Dec-04 17:33N 32°49' E 035°02'0 0.0
2016-Dec-04 16:33N 32°49' E 035°02'1 0.6
2016-Dec-04 15:33N 32°49' E 035°01'2 1.9
2016-Dec-04 14:33N 32°51' E 034°60'0 0.0
2016-Dec-04 13:33N 32°51' E 034°60'0 0.0
2016-Dec-04 12:33N 32°51' E 034°60'0 0.0
2016-Dec-04 11:33N 32°51' E 034°60'0 0.0
2016-Dec-04 10:33N 32°51' E 034°60'0 0.0
2016-Dec-04 09:33N 32°51' E 034°60'0 0.0
2016-Dec-04 07:33N 32°51' E 034°60'0 0.0
2016-Dec-04 06:33N 32°51' E 034°60'0 0.1
2016-Dec-04 05:33N 32°51' E 034°60'9 9.3
2016-Dec-04 04:32N 32°53' E 034°49'1211.4
2016-Dec-04 03:32N 32°55' E 034°36'  
2016-Nov-29 15:18N 36°39' E 014°33'7 9.9
2016-Nov-29 14:33N 36°42' E 014°25'10 9.8
2016-Nov-29 13:33N 36°46' E 014°13'10 9.8
2016-Nov-29 12:33N 36°50' E 014°02'1010.4
2016-Nov-29 11:33N 36°54' E 013°50'  
2016-Nov-25 18:12N 35°56' W 005°14'4 5.5
2016-Nov-25 17:33N 35°54' W 005°18'0 0.0
2016-Nov-25 16:33N 35°54' W 005°18'0 0.0
2016-Nov-25 15:33N 35°54' W 005°18'0 0.0
2016-Nov-25 14:33N 35°54' W 005°18'0 0.0
2016-Nov-25 13:33N 35°54' W 005°18'0 0.0
2016-Nov-25 12:33N 35°54' W 005°18'  
Track history (hours):
 
Tides and Currents Weather Stations Pressure Air Temp Water Temp Dewpoint Dewpoint Depression Visibility Wind Speed Wind Dir Waves Ship Positions

Schillplate

Last reported at 2016-Dec-05 03:33 UTC. Time now 2016-Dec-05 04:29 UTC.
Position N 32°49' E 035°02'.

Length 86 m; draft 4.4 m.

Type: Cargo ship. MMSI: 236111603.

Date/timePositionNaut miles runAvg speedWind from/ knotsBaromVisibWave heightAir tempDewpointWater temp
2016-Dec-05 03:33N 32°49' E 035°02'0 0.0
2016-Dec-05 02:33N 32°49' E 035°02'0 0.0
2016-Dec-05 01:33N 32°49' E 035°02'0 0.0
2016-Dec-05 00:33N 32°49' E 035°02'0 0.0
2016-Dec-04 23:33N 32°49' E 035°02'0 0.0
2016-Dec-04 22:33N 32°49' E 035°02'0 0.0
2016-Dec-04 21:33N 32°49' E 035°02'0 0.0
2016-Dec-04 20:33N 32°49' E 035°02'0 0.0
2016-Dec-04 19:33N 32°49' E 035°02'0 0.0
2016-Dec-04 18:33N 32°49' E 035°02'0 0.0
2016-Dec-04 17:33N 32°49' E 035°02'0 0.0
2016-Dec-04 16:33N 32°49' E 035°02'1 0.6
2016-Dec-04 15:33N 32°49' E 035°01'2 1.9
2016-Dec-04 14:33N 32°51' E 034°60'0 0.0
2016-Dec-04 13:33N 32°51' E 034°60'0 0.0
2016-Dec-04 12:33N 32°51' E 034°60'0 0.0
2016-Dec-04 11:33N 32°51' E 034°60'0 0.0
2016-Dec-04 10:33N 32°51' E 034°60'0 0.0
2016-Dec-04 09:33N 32°51' E 034°60'0 0.0
2016-Dec-04 07:33N 32°51' E 034°60'0 0.0
2016-Dec-04 06:33N 32°51' E 034°60'0 0.1
2016-Dec-04 05:33N 32°51' E 034°60'9 9.3
2016-Dec-04 04:32N 32°53' E 034°49'1211.4
2016-Dec-04 03:32N 32°55' E 034°36'  
2016-Nov-29 15:18N 36°39' E 014°33'7 9.9
2016-Nov-29 14:33N 36°42' E 014°25'10 9.8
2016-Nov-29 13:33N 36°46' E 014°13'10 9.8
2016-Nov-29 12:33N 36°50' E 014°02'1010.4
2016-Nov-29 11:33N 36°54' E 013°50'  
2016-Nov-25 18:12N 35°56' W 005°14'4 5.5
2016-Nov-25 17:33N 35°54' W 005°18'0 0.0
2016-Nov-25 16:33N 35°54' W 005°18'0 0.0
2016-Nov-25 15:33N 35°54' W 005°18'0 0.0
2016-Nov-25 14:33N 35°54' W 005°18'0 0.0
2016-Nov-25 13:33N 35°54' W 005°18'0 0.0
2016-Nov-25 12:33N 35°54' W 005°18'  

Dump ship's entire track history